createdAt,value
2023-03-13T00:02:40.036Z,100212.09
2023-03-13T00:06:42.354Z,100219.94
2023-03-13T00:10:43.816Z,100218.53
2023-03-13T00:14:45.276Z,100219.94
2023-03-13T00:18:48.888Z,100226.56
2023-03-13T00:22:50.391Z,100205.38
2023-03-13T00:26:51.824Z,100207.06
2023-03-13T00:31:20.591Z,100205.34
2023-03-13T00:35:22.229Z,100197.31
2023-03-13T00:39:23.682Z,100196.66
2023-03-13T00:43:25.101Z,100202.84
2023-03-13T00:47:26.581Z,100197.44
2023-03-13T00:51:29.038Z,100192.50
2023-03-13T00:55:30.507Z,100191.00
2023-03-13T00:59:31.915Z,100176.69
2023-03-13T01:03:33.357Z,100168.91
2023-03-13T01:07:34.846Z,100163.03
2023-03-13T01:11:38.792Z,100164.78
2023-03-13T01:15:40.266Z,100154.88
2023-03-13T01:19:41.890Z,100154.44
2023-03-13T01:23:43.364Z,100162.22
2023-03-13T01:27:44.774Z,100161.66
2023-03-13T01:31:46.252Z,100157.28
2023-03-13T01:35:48.062Z,100154.34
2023-03-13T01:39:49.499Z,100147.22
2023-03-13T01:43:51.381Z,100148.81
2023-03-13T01:47:53.074Z,100147.91
2023-03-13T01:52:06.342Z,100143.53
2023-03-13T01:56:13.558Z,100138.47
2023-03-13T02:00:20.051Z,100119.22
2023-03-13T02:04:23.440Z,100119.22
2023-03-13T02:08:32.592Z,100112.34
2023-03-13T02:12:36.384Z,100107.75
2023-03-13T02:16:38.445Z,100103.66
2023-03-13T02:20:40.590Z,100097.22
2023-03-13T02:25:02.079Z,100090.13
2023-03-13T02:29:03.619Z,100086.22
2023-03-13T02:33:05.179Z,100088.84
2023-03-13T02:37:10.870Z,100080.69
2023-03-13T02:41:13.747Z,100077.34
2023-03-13T02:45:17.267Z,100066.25
2023-03-13T02:49:21.794Z,100068.88
2023-03-13T02:53:23.249Z,100053.16
2023-03-13T02:57:24.712Z,100047.66
2023-03-13T03:01:26.202Z,100030.88
2023-03-13T03:05:27.660Z,100028.34
2023-03-13T03:09:29.120Z,100025.31
2023-03-13T03:13:30.686Z,100013.66
2023-03-13T03:17:32.133Z,100014.38
2023-03-13T03:21:34.675Z,100006.56
2023-03-13T03:25:36.097Z,100012.53
2023-03-13T03:29:37.505Z,99993.69
2023-03-13T03:33:39.939Z,99999.41
2023-03-13T03:37:41.401Z,99992.53
2023-03-13T03:41:42.823Z,99997.00
2023-03-13T03:45:44.309Z,99989.53
2023-03-13T03:49:45.810Z,99977.31
2023-03-13T03:53:47.388Z,99976.94
2023-03-13T03:57:48.836Z,99954.81
2023-03-13T04:01:50.314Z,99954.50
2023-03-13T04:05:52.137Z,99945.84
2023-03-13T04:09:53.545Z,99942.63
2023-03-13T04:13:54.991Z,99930.47
2023-03-13T04:17:56.459Z,99928.97
2023-03-13T04:21:57.962Z,99918.91
2023-03-13T04:25:59.483Z,99915.44
2023-03-13T04:30:00.912Z,99902.31
2023-03-13T04:34:02.782Z,99904.41
2023-03-13T04:38:04.247Z,99896.81
2023-03-13T04:42:05.773Z,99886.81
2023-03-13T04:46:07.423Z,99883.66
2023-03-13T04:50:09.472Z,99879.09
2023-03-13T04:54:11.506Z,99875.63
2023-03-13T04:58:12.993Z,99869.75
2023-03-13T05:02:14.484Z,99861.50
2023-03-13T05:06:16.212Z,99855.09
2023-03-13T05:10:17.834Z,99842.03
2023-03-13T05:14:19.507Z,99834.56
2023-03-13T05:18:20.930Z,99816.25
2023-03-13T05:22:22.378Z,99812.72
2023-03-13T05:26:23.852Z,99821.34
2023-03-13T05:30:25.404Z,99811.03
2023-03-13T05:34:26.844Z,99816.91
2023-03-13T05:38:28.374Z,99804.72
2023-03-13T05:42:29.996Z,99786.94
2023-03-13T05:46:32.399Z,99772.38
2023-03-13T05:50:34.020Z,99777.66
2023-03-13T05:54:35.441Z,99759.50
2023-03-13T05:58:36.884Z,99752.91
2023-03-13T06:02:38.329Z,99743.16
2023-03-13T06:06:39.815Z,99748.00
2023-03-13T06:10:41.288Z,99742.03
2023-03-13T06:14:42.707Z,99734.22
2023-03-13T06:18:44.700Z,99729.31
2023-03-13T06:22:46.196Z,99721.88
2023-03-13T06:26:51.395Z,99707.53
2023-03-13T06:30:53.180Z,99701.75
2023-03-13T06:34:54.689Z,99701.00
2023-03-13T06:38:56.152Z,99679.84
2023-03-13T06:42:57.623Z,99673.91
2023-03-13T06:46:59.171Z,99661.78
2023-03-13T06:51:00.725Z,99652.41
2023-03-13T06:55:02.228Z,99641.44
2023-03-13T06:59:03.769Z,99647.47
2023-03-13T07:03:05.555Z,99636.22
2023-03-13T07:07:07.066Z,99640.44
2023-03-13T07:11:10.946Z,99637.97
2023-03-13T07:15:12.377Z,99644.59
2023-03-13T07:19:15.088Z,99619.69
2023-03-13T07:23:16.538Z,99621.44
2023-03-13T07:27:21.035Z,99615.84
2023-03-13T07:31:24.469Z,99620.56
2023-03-13T07:35:26.090Z,99621.63
2023-03-13T07:39:27.601Z,99613.94
2023-03-13T07:43:31.326Z,99605.38
2023-03-13T07:47:34.813Z,99609.13
2023-03-13T07:51:43.532Z,99575.44
2023-03-13T07:55:52.272Z,99578.78
2023-03-13T07:59:53.701Z,99578.06
2023-03-13T08:03:56.131Z,99574.25
2023-03-13T08:07:57.618Z,99566.34
2023-03-13T08:11:59.047Z,99565.53
2023-03-13T08:16:07.983Z,99551.00
2023-03-13T08:20:10.577Z,99555.31
2023-03-13T08:24:12.954Z,99554.19
2023-03-13T08:28:14.398Z,99543.63
2023-03-13T08:32:18.069Z,99550.31
2023-03-13T08:36:25.134Z,99545.75
2023-03-13T08:40:26.582Z,99538.94
2023-03-13T08:44:30.735Z,99520.16
2023-03-13T08:48:32.298Z,99522.66
2023-03-13T08:52:33.761Z,99507.84
2023-03-13T08:56:35.334Z,99506.75
2023-03-13T09:00:36.870Z,99493.03
2023-03-13T09:04:38.324Z,99492.72
2023-03-13T09:08:41.440Z,99485.63
2023-03-13T09:12:42.877Z,99470.78
2023-03-13T09:16:46.304Z,99476.31
2023-03-13T09:20:49.076Z,99481.13
2023-03-13T09:24:50.678Z,99479.25
2023-03-13T09:28:52.996Z,99482.00
2023-03-13T09:32:54.537Z,99480.38
2023-03-13T09:36:55.994Z,99479.97
2023-03-13T09:41:14.550Z,99465.91
2023-03-13T09:45:33.874Z,99476.25
2023-03-13T09:49:41.038Z,99460.19
2023-03-13T09:53:49.682Z,99472.56
2023-03-13T09:58:11.292Z,99439.88
2023-03-13T10:02:35.283Z,99446.19
2023-03-13T10:06:42.562Z,99433.16
2023-03-13T10:11:08.012Z,70141.72
2023-03-13T10:15:24.582Z,70141.72
2023-03-13T10:19:37.760Z,70141.72
2023-03-13T10:23:39.271Z,70141.72
2023-03-13T10:27:50.444Z,70141.72
2023-03-13T10:32:04.359Z,70141.72
2023-03-13T10:36:09.257Z,70141.72
2023-03-13T10:44:30.099Z,99433.16
2023-03-13T10:48:41.715Z,99433.16
2023-03-13T10:52:47.813Z,99433.16
2023-03-13T10:56:50.925Z,99433.16
2023-03-13T11:00:52.480Z,99433.16
2023-03-13T11:04:54.835Z,99371.56
2023-03-13T11:09:14.239Z,99361.66
2023-03-13T11:13:36.444Z,99356.06
2023-03-13T11:17:42.517Z,99358.84
2023-03-13T11:22:14.885Z,99384.59
2023-03-13T11:26:31.584Z,99340.13
2023-03-13T11:30:50.550Z,99330.94
2023-03-13T11:34:57.557Z,99333.28
2023-03-13T11:39:08.034Z,99320.63
2023-03-13T11:43:30.980Z,99324.09
2023-03-13T11:48:07.451Z,99315.28
2023-03-13T11:52:21.312Z,99318.44
2023-03-13T11:56:33.864Z,99324.31
2023-03-13T12:00:37.903Z,99325.13
2023-03-13T12:04:45.561Z,99324.69
2023-03-13T12:08:53.461Z,99311.09
2023-03-13T12:13:06.412Z,99299.75
2023-03-13T12:17:22.673Z,99322.66
2023-03-13T12:21:54.878Z,99307.66
2023-03-13T12:26:12.233Z,99303.50
2023-03-13T12:30:33.717Z,99301.28
2023-03-13T12:34:54.044Z,99313.13
2023-03-13T12:38:58.753Z,99284.31
2023-03-13T12:43:18.729Z,99281.69
2023-03-13T12:47:20.059Z,99275.59
2023-03-13T12:51:49.174Z,70141.72
2023-03-13T12:56:05.934Z,70141.72
2023-03-13T13:00:20.739Z,70141.72
2023-03-13T13:04:25.865Z,70141.72
2023-03-13T13:08:46.959Z,70141.72
2023-03-13T13:13:14.199Z,70141.72
2023-03-13T13:17:44.909Z,70141.72
2023-03-13T13:21:46.448Z,70141.72
2023-03-13T13:25:49.724Z,70141.72
2023-03-13T13:29:54.812Z,70141.72
2023-03-13T13:33:56.292Z,70141.72
2023-03-13T13:38:19.492Z,70141.72
2023-03-13T13:42:30.579Z,70141.72
2023-03-13T13:46:33.990Z,70141.72
2023-03-13T13:50:35.569Z,70141.72
2023-03-13T13:54:44.649Z,70141.72
2023-03-13T13:58:47.048Z,70141.72
2023-03-13T14:02:51.738Z,70141.72
2023-03-13T14:06:54.288Z,70141.72
2023-03-13T14:11:05.476Z,70141.72
2023-03-13T14:15:13.119Z,70141.72
2023-03-13T14:19:28.501Z,70141.72
2023-03-13T14:23:40.034Z,70141.72
2023-03-13T14:27:46.272Z,70141.72
2023-03-13T14:31:55.973Z,70141.72
2023-03-13T14:35:57.817Z,70141.72
2023-03-13T14:40:09.611Z,70141.72
2023-03-13T14:44:29.811Z,70141.72
2023-03-13T14:48:34.592Z,70141.72
2023-03-13T14:52:36.946Z,70141.72
2023-03-13T14:56:43.512Z,70141.72
2023-03-13T15:00:47.609Z,70141.72
2023-03-13T15:05:02.313Z,70141.72
2023-03-13T15:09:09.852Z,70141.72
2023-03-13T15:13:20.452Z,70141.72
2023-03-13T15:17:24.176Z,70141.72
2023-03-13T15:21:31.116Z,70141.72
2023-03-13T15:25:32.564Z,70141.72
2023-03-13T15:29:34.045Z,70141.72
2023-03-13T15:33:35.576Z,70141.72
2023-03-13T15:37:37.186Z,70141.72
2023-03-13T15:41:38.626Z,70141.72
2023-03-13T15:45:42.571Z,70141.72
2023-03-13T15:49:44.105Z,70141.72
2023-03-13T15:53:46.259Z,70141.72
2023-03-13T15:57:50.498Z,70141.72
2023-03-13T16:01:51.988Z,70141.72
2023-03-13T16:05:55.309Z,70141.72
2023-03-13T16:09:56.861Z,70141.72
2023-03-13T16:13:58.693Z,70141.72
2023-03-13T16:18:00.236Z,70141.72
2023-03-13T16:22:01.703Z,70141.72
2023-03-13T16:26:03.283Z,70141.72
2023-03-13T16:30:13.269Z,70141.72
2023-03-13T16:34:14.715Z,70141.72
2023-03-13T16:38:16.229Z,70141.72
2023-03-13T16:42:17.753Z,70141.72
2023-03-13T16:46:29.915Z,70141.72
2023-03-13T16:50:38.327Z,70141.72
2023-03-13T16:54:39.879Z,70141.72
2023-03-13T16:58:41.318Z,70141.72
2023-03-13T17:02:43.175Z,70141.72
2023-03-13T17:06:44.894Z,70141.72
2023-03-13T17:14:52.886Z,70141.72
2023-03-13T17:18:54.453Z,70141.72
2023-03-13T17:22:56.706Z,70141.72
2023-03-13T17:26:58.211Z,70141.72
2023-03-13T17:30:59.751Z,70141.72
2023-03-13T17:35:01.282Z,70141.72
2023-03-13T17:39:05.673Z,70141.72
2023-03-13T17:43:07.491Z,70141.72
2023-03-13T17:47:17.606Z,70141.72
2023-03-13T17:51:25.814Z,70141.72
2023-03-13T17:55:27.292Z,70141.72
2023-03-13T17:59:29.521Z,70141.72
2023-03-13T18:03:31.847Z,70141.72
2023-03-13T18:07:33.336Z,70141.72
2023-03-13T18:11:36.557Z,70141.72
2023-03-13T18:15:38.210Z,70141.72
2023-03-13T18:19:39.709Z,70141.72
2023-03-13T18:23:41.317Z,70141.72
2023-03-13T18:27:42.973Z,70141.72
2023-03-13T18:31:45.207Z,70141.72
2023-03-13T18:35:46.779Z,70141.72
2023-03-13T18:39:49.928Z,70141.72
2023-03-13T18:43:52.255Z,70141.72
2023-03-13T18:47:54.524Z,70141.72
2023-03-13T18:51:56.070Z,70141.72
2023-03-13T18:56:06.121Z,70141.72
2023-03-13T19:00:24.158Z,70141.72
2023-03-13T19:04:25.966Z,70141.72
2023-03-13T19:08:27.527Z,70141.72
2023-03-13T19:12:32.422Z,70141.72
2023-03-13T19:16:46.082Z,70141.72
2023-03-13T19:20:47.679Z,70141.72
2023-03-13T19:24:49.144Z,70141.72
2023-03-13T19:28:50.606Z,70141.72
2023-03-13T19:32:52.353Z,70141.72
2023-03-13T19:36:53.864Z,70141.72
2023-03-13T19:40:55.353Z,70141.72
2023-03-13T19:44:56.775Z,70141.72
2023-03-13T19:49:00.361Z,70141.72
2023-03-13T19:53:01.861Z,70141.72
2023-03-13T19:57:03.962Z,70141.72
2023-03-13T20:01:16.903Z,70141.72
2023-03-13T20:05:19.107Z,70141.72
2023-03-13T20:09:20.949Z,70141.72
2023-03-13T20:13:22.569Z,70141.72
2023-03-13T20:17:24.031Z,70141.72
2023-03-13T20:21:36.396Z,70141.72
2023-03-13T20:25:37.864Z,70141.72
2023-03-13T20:29:41.259Z,70141.72
2023-03-13T20:33:42.830Z,70141.72
2023-03-13T20:37:44.948Z,70141.72
2023-03-13T20:41:46.392Z,70141.72
2023-03-13T20:45:47.892Z,70141.72
2023-03-13T20:49:49.333Z,70141.72
2023-03-13T20:53:50.755Z,70141.72
2023-03-13T20:57:52.329Z,70141.72
2023-03-13T21:01:53.784Z,70141.72
2023-03-13T21:05:55.338Z,70141.72
2023-03-13T21:09:56.759Z,70141.72
2023-03-13T21:13:58.166Z,70141.72
2023-03-13T21:18:00.112Z,70141.72
2023-03-13T21:22:01.549Z,70141.72
2023-03-13T21:26:03.220Z,70141.72
2023-03-13T21:30:07.460Z,70141.72
2023-03-13T21:34:10.530Z,70141.72
2023-03-13T21:38:12.075Z,70141.72
2023-03-13T21:42:13.669Z,70141.72
2023-03-13T21:46:18.008Z,70141.72
2023-03-13T21:54:25.464Z,70141.72
2023-03-13T21:58:27.062Z,70141.72
2023-03-13T22:02:28.727Z,70141.72
2023-03-13T22:06:30.190Z,70141.72
2023-03-13T22:10:31.735Z,70141.72
2023-03-13T22:14:33.214Z,70141.72
2023-03-13T22:18:34.641Z,70141.72
2023-03-13T22:22:36.187Z,70141.72
2023-03-13T22:26:38.214Z,70141.72
2023-03-13T22:30:40.575Z,70141.72
2023-03-13T22:34:44.980Z,70141.72
2023-03-13T22:38:46.525Z,70141.72
2023-03-13T22:42:48.294Z,70141.72
2023-03-13T22:46:49.759Z,70141.72
2023-03-13T22:51:02.764Z,70141.72
2023-03-13T22:55:04.657Z,70141.72
2023-03-13T22:59:06.208Z,70141.72
2023-03-13T23:03:07.669Z,70141.72
2023-03-13T23:07:09.113Z,70141.72
2023-03-13T23:11:11.227Z,70141.72
2023-03-13T23:15:12.921Z,70141.72
2023-03-13T23:19:14.382Z,70141.72
2023-03-13T23:23:16.404Z,70141.72
2023-03-13T23:27:17.848Z,70141.72
2023-03-13T23:31:21.517Z,70141.72
2023-03-13T23:35:23.003Z,70141.72
2023-03-13T23:39:24.456Z,70141.72
2023-03-13T23:43:25.871Z,70141.72
2023-03-13T23:47:28.335Z,70141.72
2023-03-13T23:51:29.826Z,70141.72
2023-03-13T23:55:31.271Z,70141.72
2023-03-13T23:59:33.430Z,70141.72
